createdAt,value
2023-05-14T21:00:44.687Z,29.90
2023-05-14T21:03:12.251Z,26.50
2023-05-14T21:05:41.742Z,28.60
2023-05-14T21:08:08.999Z,26.42
2023-05-14T21:10:36.296Z,30.75
2023-05-14T21:13:03.929Z,25.40
2023-05-14T21:15:31.395Z,23.88
2023-05-14T21:17:58.717Z,27.35
2023-05-14T21:20:26.147Z,24.48
2023-05-14T21:22:53.374Z,23.63
2023-05-14T21:25:20.856Z,26.10
2023-05-14T21:27:48.175Z,26.95
2023-05-14T21:30:15.795Z,22.88
2023-05-14T21:32:43.076Z,19.80
2023-05-14T21:35:10.632Z,27.88
2023-05-14T21:37:39.995Z,19.35
2023-05-14T21:40:12.662Z,25.00
2023-05-14T21:42:41.050Z,19.08
2023-05-14T21:45:08.884Z,19.67
2023-05-14T21:50:05.175Z,22.90
2023-05-14T21:52:32.595Z,20.55
2023-05-14T21:54:59.881Z,21.25
2023-05-14T21:57:28.249Z,24.92
2023-05-14T21:59:56.185Z,22.92
2023-05-14T22:02:23.623Z,18.50
2023-05-14T22:04:50.938Z,17.67
2023-05-14T22:07:18.220Z,21.30
2023-05-14T22:09:45.592Z,20.85
2023-05-14T22:12:12.888Z,24.08
2023-05-14T22:14:40.207Z,19.38
2023-05-14T22:17:07.594Z,17.65
2023-05-14T22:19:34.859Z,15.25
2023-05-14T22:22:02.148Z,18.95
2023-05-14T22:24:29.369Z,16.60
2023-05-14T22:26:56.787Z,19.35
2023-05-14T22:29:24.060Z,18.05
2023-05-14T22:31:51.459Z,18.00
2023-05-14T22:34:19.769Z,10.65
2023-05-14T22:36:47.069Z,14.52
2023-05-14T22:39:14.406Z,13.90
2023-05-14T22:41:41.674Z,15.35
2023-05-14T22:44:08.951Z,13.88
2023-05-14T22:46:36.330Z,13.55
2023-05-14T22:49:03.576Z,10.68
2023-05-14T22:51:30.953Z,9.10
2023-05-14T22:53:58.188Z,11.05
2023-05-14T22:56:25.519Z,9.93
2023-05-14T22:58:52.841Z,11.52
2023-05-14T23:01:20.184Z,11.70
2023-05-14T23:03:47.485Z,12.40
2023-05-14T23:06:15.065Z,8.13
2023-05-14T23:08:42.380Z,11.60
2023-05-14T23:11:09.740Z,17.30
2023-05-14T23:13:37.020Z,10.02
2023-05-14T23:16:05.078Z,7.78
2023-05-14T23:18:32.838Z,8.65
2023-05-14T23:21:00.219Z,12.20
2023-05-14T23:23:27.529Z,9.73
2023-05-14T23:25:56.400Z,10.23
2023-05-14T23:28:23.696Z,10.63
2023-05-14T23:30:50.968Z,8.50
2023-05-14T23:33:21.068Z,9.82
2023-05-14T23:35:48.755Z,8.07
2023-05-14T23:38:16.871Z,9.45
2023-05-14T23:40:44.117Z,9.52
2023-05-14T23:43:11.427Z,9.85
2023-05-14T23:45:39.035Z,8.27
2023-05-14T23:48:06.467Z,7.93
2023-05-14T23:50:33.822Z,12.48
2023-05-14T23:53:01.024Z,10.00
2023-05-14T23:55:28.317Z,6.38
2023-05-14T23:57:55.655Z,9.50
